South Park, Pennsylvania
Current Conditions -  °F | °C
As of 11:53 AM on Friday 28 Nov 2014 (Local Time) from KAGC Reporting Station
Overcast Overcast  
Wind Chill: 15°   Ceiling: 3500
Heat Index: 25°   Visibility: 10mi
Dew Point:   Wind: 10mph
Humidity: 51%   Direction: 280°W
Pressure: 30.29"   Gusts: 18mph
Location:  40.2926°N, 79.9947°W
Report Text: KAGC 281653Z 28009G16KT 10SM OVC035 M04/M13 A3029 RMK AO2 SLP278 T10391128
Loading
Personal Weather Stations






























Interactive Weather Map New forecast layout! Learn more

10-Day Weather Forecast

Advertisements
Track Severe Weather on mobile